createdAt,value
2023-02-19T00:01:04.738Z,698.6
2023-02-19T00:02:48.505Z,694.6
2023-02-19T00:04:32.134Z,688.7
2023-02-19T00:06:15.882Z,687.4
2023-02-19T00:07:59.541Z,686.3
2023-02-19T00:09:43.243Z,685.4
2023-02-19T00:11:26.944Z,682.9
2023-02-19T00:13:10.659Z,678
2023-02-19T00:14:54.360Z,674.1
2023-02-19T00:16:38.065Z,673.7
2023-02-19T00:18:21.765Z,674
2023-02-19T00:20:05.464Z,671.3
2023-02-19T00:21:49.167Z,673.6
2023-02-19T00:23:32.857Z,672.8
2023-02-19T00:25:16.600Z,672.4
2023-02-19T00:27:00.327Z,674.2
2023-02-19T00:28:44.029Z,669.9
2023-02-19T00:30:27.688Z,669.3
2023-02-19T00:32:11.438Z,669.4
2023-02-19T00:33:55.065Z,668.4
2023-02-19T00:35:38.775Z,668.6
2023-02-19T00:37:22.477Z,665.1
2023-02-19T00:39:06.194Z,661.2
2023-02-19T00:40:49.868Z,660.1
2023-02-19T00:42:33.601Z,659.6
2023-02-19T00:44:17.369Z,656.2
2023-02-19T00:46:01.108Z,660.1
2023-02-19T00:47:44.681Z,660.4
2023-02-19T00:49:28.389Z,660.6
2023-02-19T00:51:12.089Z,660.4
2023-02-19T00:52:55.802Z,659.7
2023-02-19T00:54:39.513Z,656.6
2023-02-19T00:56:23.213Z,653.3
2023-02-19T00:58:06.906Z,649.3
2023-02-19T00:59:50.727Z,646.3
2023-02-19T01:01:34.314Z,646.9
2023-02-19T01:03:18.007Z,647.2
2023-02-19T01:05:01.724Z,645.9
2023-02-19T01:06:45.481Z,645.4
2023-02-19T01:08:29.117Z,643.1
2023-02-19T01:10:12.817Z,642.5
2023-02-19T01:11:56.508Z,639.6
2023-02-19T01:13:40.202Z,638.1
2023-02-19T01:15:23.924Z,636.8
2023-02-19T01:17:07.592Z,636.1
2023-02-19T01:18:52.012Z,632.4
2023-02-19T01:20:35.100Z,634.4
2023-02-19T01:22:18.729Z,634.7
2023-02-19T01:24:02.433Z,631.9
2023-02-19T01:25:46.156Z,628.8
2023-02-19T01:27:29.809Z,625.3
2023-02-19T01:29:13.557Z,623.4
2023-02-19T01:30:57.199Z,622.3
2023-02-19T01:32:41.008Z,619.5
2023-02-19T01:34:24.625Z,617.9
2023-02-19T01:36:08.323Z,615.8
2023-02-19T01:37:52.045Z,616.2
2023-02-19T01:39:35.760Z,618.2
2023-02-19T01:41:19.431Z,613.7
2023-02-19T01:43:03.138Z,613.2
2023-02-19T01:44:46.864Z,611.4
2023-02-19T01:46:30.537Z,610.8
2023-02-19T01:48:14.269Z,611.9
2023-02-19T01:49:58.049Z,611.1
2023-02-19T01:51:41.663Z,607
2023-02-19T01:53:25.350Z,608
2023-02-19T01:55:09.050Z,609.1
2023-02-19T01:56:52.760Z,610.2
2023-02-19T01:58:36.462Z,609.4
2023-02-19T02:00:20.155Z,610.6
2023-02-19T02:02:04.021Z,607.6
2023-02-19T02:03:47.549Z,607.9
2023-02-19T02:05:31.259Z,607.3
2023-02-19T02:07:14.984Z,605.7
2023-02-19T02:08:58.639Z,604
2023-02-19T02:10:42.356Z,604.6
2023-02-19T02:12:26.062Z,603.5
2023-02-19T02:14:09.727Z,603.1
2023-02-19T02:15:53.455Z,601.6
2023-02-19T02:17:37.159Z,601
2023-02-19T02:19:20.904Z,599.1
2023-02-19T02:21:04.584Z,598.4
2023-02-19T02:22:48.266Z,599.3
2023-02-19T02:24:31.947Z,599.5
2023-02-19T02:26:15.667Z,599.2
2023-02-19T02:27:59.358Z,598.9
2023-02-19T02:29:43.062Z,598.1
2023-02-19T02:31:26.809Z,594.1
2023-02-19T02:33:10.463Z,592.5
2023-02-19T02:34:54.236Z,590.7
2023-02-19T02:36:37.869Z,587.2
2023-02-19T02:38:21.626Z,586.7
2023-02-19T02:40:05.288Z,583.4
2023-02-19T02:41:48.989Z,581.8
2023-02-19T02:43:32.670Z,580.2
2023-02-19T02:45:16.443Z,579.2
2023-02-19T02:47:00.135Z,576.9
2023-02-19T02:48:43.847Z,576.1
2023-02-19T02:50:27.534Z,575.4
2023-02-19T02:52:11.227Z,573.4
2023-02-19T02:53:54.962Z,573.6
2023-02-19T02:55:38.657Z,570.6
2023-02-19T02:57:22.316Z,571.2
2023-02-19T02:59:06.010Z,572.4
2023-02-19T03:00:49.759Z,570.6
2023-02-19T03:02:33.450Z,572.5
2023-02-19T03:04:17.158Z,572.3
2023-02-19T03:06:00.859Z,570.5
2023-02-19T03:07:44.562Z,570.4
2023-02-19T03:09:28.278Z,569.1
2023-02-19T03:11:11.940Z,568.6
2023-02-19T03:12:55.648Z,567.5
2023-02-19T03:14:39.323Z,566.6
2023-02-19T03:16:23.001Z,565.6
2023-02-19T03:18:06.703Z,561.4
2023-02-19T03:19:50.389Z,559.2
2023-02-19T03:21:34.106Z,557
2023-02-19T03:23:17.820Z,556.7
2023-02-19T03:25:01.550Z,555.6
2023-02-19T03:26:45.222Z,552.7
2023-02-19T03:28:28.912Z,555.3
2023-02-19T03:30:12.604Z,555.2
2023-02-19T03:31:56.313Z,554.5
2023-02-19T03:33:40.009Z,554.5
2023-02-19T03:35:23.715Z,553.8
2023-02-19T03:37:07.435Z,553.1
2023-02-19T03:38:51.124Z,552.6
2023-02-19T03:40:34.826Z,550.3
2023-02-19T03:42:18.522Z,548.6
2023-02-19T03:44:02.229Z,545.8
2023-02-19T03:45:45.937Z,545.2
2023-02-19T03:47:29.632Z,544.8
2023-02-19T03:49:13.327Z,544.1
2023-02-19T03:50:57.016Z,543.3
2023-02-19T03:52:40.735Z,544.9
2023-02-19T03:54:24.434Z,545.6
2023-02-19T03:56:08.145Z,546.8
2023-02-19T03:57:51.837Z,548.1
2023-02-19T03:59:35.567Z,545
2023-02-19T04:01:19.241Z,539.7
2023-02-19T04:03:02.942Z,540
2023-02-19T04:04:46.656Z,536.8
2023-02-19T04:06:30.416Z,536.1
2023-02-19T04:08:14.049Z,537.4
2023-02-19T04:09:57.782Z,536.7
2023-02-19T04:11:41.444Z,535.1
2023-02-19T04:13:25.150Z,536.1
2023-02-19T04:15:08.891Z,534.3
2023-02-19T04:16:52.540Z,535.3
2023-02-19T04:18:36.270Z,534.5
2023-02-19T04:20:19.954Z,534.9
2023-02-19T04:22:03.661Z,534.9
2023-02-19T04:23:47.345Z,534.7
2023-02-19T04:25:31.066Z,534.4
2023-02-19T04:27:14.769Z,534
2023-02-19T04:28:58.474Z,534.6
2023-02-19T04:30:42.155Z,533
2023-02-19T04:32:25.856Z,532.7
2023-02-19T04:34:09.571Z,531.7
2023-02-19T04:35:53.276Z,531
2023-02-19T04:37:36.969Z,531.2
2023-02-19T04:39:20.677Z,531.5
2023-02-19T04:41:04.361Z,529.2
2023-02-19T04:42:48.086Z,527.4
2023-02-19T04:44:31.761Z,526.7
2023-02-19T04:46:15.481Z,527.2
2023-02-19T04:47:59.201Z,527.6
2023-02-19T04:49:42.893Z,529.3
2023-02-19T04:51:26.585Z,530.1
2023-02-19T04:53:10.284Z,531.6
2023-02-19T04:54:53.965Z,528.5
2023-02-19T04:56:37.692Z,527.4
2023-02-19T04:58:21.404Z,525.5
2023-02-19T05:00:05.094Z,525.7
2023-02-19T05:01:48.798Z,529.5
2023-02-19T05:03:32.507Z,532
2023-02-19T05:05:16.188Z,536.5
2023-02-19T05:06:59.878Z,541.5
2023-02-19T05:08:43.654Z,542.7
2023-02-19T05:10:27.296Z,544.9
2023-02-19T05:12:11.048Z,547.2
2023-02-19T05:13:54.693Z,546.5
2023-02-19T05:15:38.401Z,547.2
2023-02-19T05:17:22.094Z,546.5
2023-02-19T05:19:05.801Z,546.7
2023-02-19T05:20:49.508Z,547.6
2023-02-19T05:22:33.205Z,547.6
2023-02-19T05:24:16.904Z,547.3
2023-02-19T05:26:00.606Z,547.8
2023-02-19T05:27:44.299Z,548.8
2023-02-19T05:29:28.008Z,549.7
2023-02-19T05:31:11.713Z,551.7
2023-02-19T05:32:55.410Z,553.9
2023-02-19T05:34:39.129Z,552.9
2023-02-19T05:36:22.825Z,551.8
2023-02-19T05:38:06.508Z,553
2023-02-19T05:39:50.221Z,554.2
2023-02-19T05:41:33.960Z,553.9
2023-02-19T05:43:17.633Z,550.7
2023-02-19T05:45:01.338Z,547.4
2023-02-19T05:46:45.049Z,544.4
2023-02-19T05:48:28.738Z,541.8
2023-02-19T05:50:12.411Z,538.6
2023-02-19T05:51:56.138Z,536.5
2023-02-19T05:53:39.859Z,532.4
2023-02-19T05:55:23.540Z,532.1
2023-02-19T05:57:07.208Z,532.4
2023-02-19T05:58:50.962Z,533.6
2023-02-19T06:00:34.640Z,535.4
2023-02-19T06:02:18.457Z,535.8
2023-02-19T06:04:02.043Z,533.3
2023-02-19T06:05:45.723Z,534
2023-02-19T06:07:29.449Z,534.9
2023-02-19T06:09:13.145Z,532.8
2023-02-19T06:10:56.840Z,531.6
2023-02-19T06:12:40.547Z,530.3
2023-02-19T06:14:24.333Z,529.2
2023-02-19T06:16:07.945Z,531
2023-02-19T06:17:51.657Z,530.7
2023-02-19T06:19:35.391Z,530.1
2023-02-19T06:21:19.073Z,528.9
2023-02-19T06:23:02.749Z,531
2023-02-19T06:24:46.480Z,532.3
2023-02-19T06:26:30.185Z,532.7
2023-02-19T06:28:13.880Z,533.1
2023-02-19T06:29:57.575Z,533.2
2023-02-19T06:31:41.291Z,535.2
2023-02-19T06:33:24.968Z,532.5
2023-02-19T06:35:08.680Z,535.3
2023-02-19T06:36:52.380Z,537.2
2023-02-19T06:38:36.075Z,538.2
2023-02-19T06:40:19.768Z,535.7
2023-02-19T06:42:03.474Z,533.2
2023-02-19T06:43:47.188Z,533.2
2023-02-19T06:45:30.894Z,530.5
2023-02-19T06:47:14.584Z,527.8
2023-02-19T06:48:58.279Z,524.1
2023-02-19T06:50:42.004Z,525.1
2023-02-19T06:52:25.695Z,525.5
2023-02-19T06:54:09.414Z,526.9
2023-02-19T06:55:53.094Z,530.6
2023-02-19T06:57:36.807Z,530.5
2023-02-19T06:59:20.528Z,526.8
2023-02-19T07:01:04.205Z,527.1
2023-02-19T07:02:47.958Z,526.3
2023-02-19T07:04:31.624Z,525.4
2023-02-19T07:06:15.316Z,524.9
2023-02-19T07:07:59.024Z,526.6
2023-02-19T07:09:42.704Z,527.5
2023-02-19T07:11:26.464Z,526.1
2023-02-19T07:13:10.107Z,526.5
2023-02-19T07:14:53.814Z,527.4
2023-02-19T07:16:37.509Z,528.3
2023-02-19T07:18:21.220Z,528.8
2023-02-19T07:20:04.901Z,529.5
2023-02-19T07:21:48.675Z,529.5
2023-02-19T07:23:32.307Z,527.8
2023-02-19T07:25:16.016Z,529.9
2023-02-19T07:26:59.733Z,528.6
2023-02-19T07:30:27.182Z,530.2
2023-02-19T07:32:10.801Z,529.5
2023-02-19T07:33:54.511Z,530.4
2023-02-19T07:35:38.217Z,532.5
2023-02-19T07:37:21.922Z,534.6
2023-02-19T07:39:05.621Z,538.2
2023-02-19T07:40:49.327Z,538
2023-02-19T07:42:33.041Z,540.6
2023-02-19T07:44:16.707Z,548.8
2023-02-19T07:46:00.473Z,551.2
2023-02-19T07:47:44.129Z,551.7
2023-02-19T07:49:27.843Z,551.4
2023-02-19T07:51:11.511Z,551.7
2023-02-19T07:52:55.231Z,550.5
2023-02-19T07:54:38.949Z,549.4
2023-02-19T07:56:22.655Z,550.4
2023-02-19T07:58:06.314Z,552.1
2023-02-19T07:59:50.034Z,554.8
2023-02-19T08:01:33.746Z,557.3
2023-02-19T08:03:17.441Z,556.3
2023-02-19T08:05:01.226Z,554.1
2023-02-19T08:06:44.942Z,553.5
2023-02-19T08:08:28.642Z,552.4
2023-02-19T08:10:12.277Z,548
2023-02-19T08:11:56.110Z,546.3
2023-02-19T08:13:39.648Z,547.4
2023-02-19T08:15:23.349Z,549.9
2023-02-19T08:17:07.070Z,552
2023-02-19T08:18:50.901Z,551
2023-02-19T08:20:34.445Z,550.6
2023-02-19T08:22:18.183Z,549.3
2023-02-19T08:24:01.852Z,549.9
2023-02-19T08:25:45.632Z,549
2023-02-19T08:27:29.455Z,549.5
2023-02-19T08:29:12.963Z,547.2
2023-02-19T08:30:56.648Z,547.6
2023-02-19T08:32:40.381Z,548.6
2023-02-19T08:34:24.074Z,549.9
2023-02-19T08:36:07.782Z,549.6
2023-02-19T08:37:51.492Z,547.7
2023-02-19T08:39:35.175Z,547
2023-02-19T08:41:18.944Z,547.8
2023-02-19T08:43:02.615Z,551.8
2023-02-19T08:44:46.394Z,551.8
2023-02-19T08:46:30.073Z,553.5
2023-02-19T08:48:13.751Z,556.1
2023-02-19T08:49:57.459Z,554.6
2023-02-19T08:51:41.155Z,555.7
2023-02-19T08:53:24.855Z,554.5
2023-02-19T08:55:08.539Z,557
2023-02-19T08:56:52.255Z,555.4
2023-02-19T08:58:36.018Z,554.9
2023-02-19T09:00:19.665Z,553.7
2023-02-19T09:02:03.348Z,553.2
2023-02-19T09:03:47.172Z,553.7
2023-02-19T09:05:30.848Z,558.3
2023-02-19T09:07:14.472Z,560.3
2023-02-19T09:08:58.149Z,560.8
2023-02-19T09:10:41.850Z,561.9
2023-02-19T09:12:25.539Z,562.1
2023-02-19T09:14:09.253Z,560
2023-02-19T09:15:52.962Z,560.6
2023-02-19T09:17:36.653Z,560.4
2023-02-19T09:19:20.329Z,559.4
2023-02-19T09:21:04.021Z,558.5
2023-02-19T09:22:47.865Z,559.1
2023-02-19T09:24:31.464Z,560.1
2023-02-19T09:26:15.176Z,561.3
2023-02-19T09:27:58.843Z,561.9
2023-02-19T09:29:42.554Z,558.4
2023-02-19T09:31:26.234Z,559.6
2023-02-19T09:33:09.963Z,560.3
2023-02-19T09:34:53.634Z,562
2023-02-19T09:36:37.479Z,561.3
2023-02-19T09:38:21.052Z,559.1
2023-02-19T09:40:04.739Z,557.9
2023-02-19T09:41:48.421Z,556.5
2023-02-19T09:43:32.225Z,555.6
2023-02-19T09:45:15.838Z,556.6
2023-02-19T09:46:59.551Z,558.6
2023-02-19T09:48:43.224Z,558.7
2023-02-19T09:50:26.954Z,557.6
2023-02-19T09:52:10.631Z,557.5
2023-02-19T09:53:54.316Z,559.5
2023-02-19T09:55:38.033Z,560
2023-02-19T09:57:21.744Z,556.6
2023-02-19T09:59:05.414Z,555
2023-02-19T10:00:49.132Z,551.5
2023-02-19T10:02:32.940Z,552.1
2023-02-19T10:04:16.638Z,550.1
2023-02-19T10:06:00.272Z,547.4
2023-02-19T10:07:43.948Z,545.1
2023-02-19T10:09:27.713Z,545.1
2023-02-19T10:11:11.337Z,543.2
2023-02-19T10:12:55.023Z,540.3
2023-02-19T10:14:38.809Z,539
2023-02-19T10:16:22.453Z,540.6
2023-02-19T10:18:06.171Z,543.7
2023-02-19T10:19:49.831Z,542.2
2023-02-19T10:21:33.542Z,538.2
2023-02-19T10:23:17.227Z,539.5
2023-02-19T10:25:01.025Z,539.4
2023-02-19T10:26:44.679Z,538.7
2023-02-19T10:28:28.387Z,536.7
2023-02-19T10:30:12.100Z,536.8
2023-02-19T10:31:55.782Z,536.9
2023-02-19T10:33:39.490Z,537.1
2023-02-19T10:35:23.194Z,538
2023-02-19T10:37:06.869Z,540.6
2023-02-19T10:38:50.599Z,540.3
2023-02-19T10:40:34.351Z,539.3
2023-02-19T10:42:18.023Z,543.3
2023-02-19T10:44:01.729Z,548.4
2023-02-19T10:45:45.382Z,554.7
2023-02-19T10:47:29.092Z,559.2
2023-02-19T10:49:12.852Z,564.5
2023-02-19T10:50:56.498Z,567.7
2023-02-19T10:52:40.219Z,572.1
2023-02-19T10:54:23.897Z,573.6
2023-02-19T10:56:07.631Z,575.4
2023-02-19T10:57:51.303Z,577.2
2023-02-19T10:59:35.037Z,578.5
2023-02-19T11:01:18.823Z,583.2
2023-02-19T11:03:02.401Z,587.1
2023-02-19T11:04:46.092Z,587.6
2023-02-19T11:06:29.800Z,586.9
2023-02-19T11:08:13.477Z,588.6
2023-02-19T11:09:57.259Z,593.2
2023-02-19T11:11:40.898Z,592.6
2023-02-19T11:13:24.673Z,593
2023-02-19T11:15:08.295Z,595.2
2023-02-19T11:16:52.019Z,596.6
2023-02-19T11:18:35.710Z,597.2
2023-02-19T11:20:19.432Z,594.1
2023-02-19T11:22:03.098Z,593.8
2023-02-19T11:23:46.879Z,591.3
2023-02-19T11:25:30.501Z,591.8
2023-02-19T11:27:14.212Z,593.2
2023-02-19T11:28:57.978Z,590.6
2023-02-19T11:30:41.609Z,590.5
2023-02-19T11:32:25.363Z,592.1
2023-02-19T11:34:09.016Z,594.7
2023-02-19T11:35:52.721Z,596
2023-02-19T11:37:36.413Z,599.3
2023-02-19T11:39:20.188Z,599.9
2023-02-19T11:41:03.816Z,600.5
2023-02-19T11:42:47.525Z,600.1
2023-02-19T11:44:31.237Z,603.1
2023-02-19T11:46:14.972Z,640.6
2023-02-19T11:47:58.632Z,697.7
2023-02-19T11:49:42.352Z,711.3
2023-02-19T11:51:26.055Z,719.5
2023-02-19T11:53:09.759Z,726.1
2023-02-19T11:54:53.445Z,736.7
2023-02-19T11:56:37.151Z,746.8
2023-02-19T11:58:20.862Z,742.4
2023-02-19T12:00:04.578Z,752.9
2023-02-19T12:01:48.257Z,770.8
2023-02-19T12:03:31.974Z,778.4
2023-02-19T12:05:15.680Z,781.8
2023-02-19T12:06:59.393Z,778.3
2023-02-19T12:08:43.107Z,770.1
2023-02-19T12:10:26.933Z,759.2
2023-02-19T12:12:10.484Z,754.6
2023-02-19T12:13:54.202Z,750.1
2023-02-19T12:15:37.903Z,747.6
2023-02-19T12:17:21.615Z,747
2023-02-19T12:19:05.311Z,749
2023-02-19T12:20:49.003Z,749.9
2023-02-19T12:22:32.735Z,748.8
2023-02-19T12:24:16.406Z,747
2023-02-19T12:26:00.163Z,746.2
2023-02-19T12:27:43.830Z,744.9
2023-02-19T12:29:27.540Z,743.5
2023-02-19T12:31:11.239Z,743.4
2023-02-19T12:32:54.934Z,741.9
2023-02-19T12:34:38.689Z,742.2
2023-02-19T12:36:22.431Z,740.2
2023-02-19T12:38:06.137Z,738.2
2023-02-19T12:39:49.812Z,739.1
2023-02-19T12:41:33.538Z,735.8
2023-02-19T12:43:17.220Z,733.1
2023-02-19T12:45:00.913Z,732.7
2023-02-19T12:46:44.616Z,733.9
2023-02-19T12:48:28.315Z,731.5
2023-02-19T12:50:12.034Z,730.1
2023-02-19T12:51:55.718Z,729.6
2023-02-19T12:53:39.425Z,727.7
2023-02-19T12:55:23.156Z,728.7
2023-02-19T12:57:06.808Z,730.2
2023-02-19T12:58:50.509Z,728.1
2023-02-19T13:00:34.218Z,728.3
2023-02-19T13:02:17.907Z,725.1
2023-02-19T13:04:01.629Z,720.9
2023-02-19T13:05:45.316Z,719.2
2023-02-19T13:07:29.022Z,723.2
2023-02-19T13:09:12.715Z,732.9
2023-02-19T13:10:56.382Z,736.4
2023-02-19T13:12:40.126Z,743.6
2023-02-19T13:14:23.845Z,758.3
2023-02-19T13:16:07.510Z,773.7
2023-02-19T13:17:51.222Z,782.2
2023-02-19T13:19:34.906Z,788.6
2023-02-19T13:21:18.630Z,793
2023-02-19T13:23:02.312Z,791.9
2023-02-19T13:24:45.997Z,789.5
2023-02-19T13:26:29.702Z,787.7
2023-02-19T13:28:13.423Z,790.7
2023-02-19T13:29:57.174Z,789.3
2023-02-19T13:31:40.814Z,788.4
2023-02-19T13:33:24.529Z,790.9
2023-02-19T13:35:08.233Z,789.8
2023-02-19T13:36:51.932Z,789.9
2023-02-19T13:38:35.614Z,787.7
2023-02-19T13:40:19.355Z,791.2
2023-02-19T13:42:03.030Z,796.2
2023-02-19T13:43:46.732Z,799
2023-02-19T13:45:30.429Z,803.4
2023-02-19T13:47:14.119Z,808.9
2023-02-19T13:48:57.830Z,813.3
2023-02-19T13:50:41.549Z,817.8
2023-02-19T13:52:25.235Z,817.4
2023-02-19T13:54:08.933Z,818
2023-02-19T13:55:52.683Z,824.4
2023-02-19T13:57:36.392Z,832.3
2023-02-19T13:59:20.072Z,834.5
2023-02-19T14:01:03.900Z,836.3
2023-02-19T14:02:47.451Z,840.9
2023-02-19T14:04:31.148Z,844
2023-02-19T14:06:14.856Z,843.9
2023-02-19T14:07:58.645Z,848.9
2023-02-19T14:09:42.313Z,854.1
2023-02-19T14:11:26.085Z,857.3
2023-02-19T14:13:09.813Z,863.8
2023-02-19T14:14:53.447Z,866.3
2023-02-19T14:16:37.148Z,868.2
2023-02-19T14:18:20.836Z,872.3
2023-02-19T14:20:04.516Z,873.2
2023-02-19T14:21:48.285Z,875.6
2023-02-19T14:23:31.896Z,875.8
2023-02-19T14:25:15.586Z,873.7
2023-02-19T14:26:59.307Z,875.7
2023-02-19T14:30:26.704Z,881.1
2023-02-19T14:32:10.403Z,888.3
2023-02-19T14:33:54.100Z,894.8
2023-02-19T14:35:37.799Z,902.7
2023-02-19T14:37:21.523Z,911.3
2023-02-19T14:39:05.226Z,918.6
2023-02-19T14:40:48.914Z,917.4
2023-02-19T14:42:32.710Z,921.3
2023-02-19T14:44:16.330Z,926.7
2023-02-19T14:46:00.036Z,926.3
2023-02-19T14:47:43.724Z,927.9
2023-02-19T14:49:27.432Z,930.8
2023-02-19T14:51:11.130Z,934.3
2023-02-19T14:52:54.841Z,938.3
2023-02-19T14:54:38.539Z,938.4
2023-02-19T14:56:22.242Z,937.8
2023-02-19T14:58:05.995Z,941.3
2023-02-19T14:59:49.651Z,944.1
2023-02-19T15:01:33.366Z,947.1
2023-02-19T15:03:17.057Z,950.4
2023-02-19T15:05:00.765Z,956
2023-02-19T15:06:44.455Z,961.9
2023-02-19T15:08:28.176Z,971.1
2023-02-19T15:11:55.578Z,973.5
2023-02-19T15:13:39.264Z,977.5
2023-02-19T15:15:22.970Z,975.1
2023-02-19T15:17:06.675Z,972.7
2023-02-19T15:18:50.382Z,974.7
2023-02-19T15:20:34.091Z,974.5
2023-02-19T15:22:17.782Z,977.5
2023-02-19T15:24:01.484Z,976.6
2023-02-19T15:25:45.194Z,974.5
2023-02-19T15:27:28.876Z,973.8
2023-02-19T15:29:12.647Z,973.6
2023-02-19T15:30:56.282Z,972
2023-02-19T15:32:40.036Z,968.8
2023-02-19T15:34:23.693Z,965.5
2023-02-19T15:36:07.386Z,967
2023-02-19T15:37:51.101Z,969.7
2023-02-19T15:39:34.790Z,969.6
2023-02-19T15:41:18.491Z,974.2
2023-02-19T15:43:02.202Z,978
2023-02-19T15:44:45.925Z,983
2023-02-19T15:46:29.619Z,985.2
2023-02-19T15:48:13.298Z,987.6
2023-02-19T15:49:57.011Z,990.2
2023-02-19T15:51:40.724Z,990.4
2023-02-19T15:53:24.408Z,992.2
2023-02-19T15:55:08.104Z,994
2023-02-19T15:56:51.816Z,1032.7
2023-02-19T15:58:35.516Z,1087.6
2023-02-19T16:00:19.211Z,1077.5
2023-02-19T16:02:02.906Z,1075.9
2023-02-19T16:03:46.782Z,1080.7
2023-02-19T16:05:30.312Z,1082
2023-02-19T16:07:14.025Z,1081.9
2023-02-19T16:08:57.723Z,1086.4
2023-02-19T16:10:41.426Z,1091.4
2023-02-19T16:12:25.225Z,1096.5
2023-02-19T16:14:08.818Z,1098.5
2023-02-19T16:15:52.506Z,1100.9
2023-02-19T16:17:36.221Z,1130.7
2023-02-19T16:19:19.919Z,1201
2023-02-19T16:21:03.616Z,1205.1
2023-02-19T16:22:47.336Z,1210.2
2023-02-19T16:24:31.070Z,1221.4
2023-02-19T16:26:14.759Z,1229.3
2023-02-19T16:27:58.437Z,1227.2
2023-02-19T16:29:42.151Z,1226
2023-02-19T16:31:25.957Z,1225
2023-02-19T16:33:09.546Z,1224.7
2023-02-19T16:34:53.247Z,1226.5
2023-02-19T16:36:36.972Z,1229.6
2023-02-19T16:38:20.681Z,1228.3
2023-02-19T16:40:04.362Z,1224.1
2023-02-19T16:41:48.120Z,1222.1
2023-02-19T16:43:31.744Z,1220.4
2023-02-19T16:45:15.465Z,1223
2023-02-19T16:46:59.161Z,1221.2
2023-02-19T16:48:42.877Z,1219
2023-02-19T16:50:26.622Z,1215
2023-02-19T16:52:10.259Z,1213.3
2023-02-19T16:53:53.978Z,1229.2
2023-02-19T16:55:37.723Z,1232.3
2023-02-19T16:57:21.358Z,1237.6
2023-02-19T16:59:05.074Z,1239.6
2023-02-19T17:00:48.802Z,1238.8
2023-02-19T17:04:16.164Z,1242.6
2023-02-19T17:05:59.951Z,1243.9
2023-02-19T17:07:43.589Z,1245
2023-02-19T17:09:27.278Z,1238.2
2023-02-19T17:11:10.985Z,1228.4
2023-02-19T17:12:54.715Z,1222.6
2023-02-19T17:14:38.396Z,1219.8
2023-02-19T17:16:22.082Z,1218.6
2023-02-19T17:18:05.770Z,1223.4
2023-02-19T17:19:49.508Z,1226.9
2023-02-19T17:21:33.172Z,1230.9
2023-02-19T17:23:16.886Z,1232
2023-02-19T17:25:00.602Z,1232.1
2023-02-19T17:26:44.328Z,1229.7
2023-02-19T17:28:27.974Z,1229.6
2023-02-19T17:30:11.691Z,1231.3
2023-02-19T17:31:55.395Z,1231
2023-02-19T17:33:39.080Z,1227.9
2023-02-19T17:35:22.801Z,1225.1
2023-02-19T17:37:06.494Z,1228
2023-02-19T17:38:50.165Z,1228
2023-02-19T17:40:33.890Z,1224.8
2023-02-19T17:42:17.585Z,1229.3
2023-02-19T17:44:01.311Z,1228
2023-02-19T17:45:44.986Z,1228.4
2023-02-19T17:47:28.748Z,1228.4
2023-02-19T17:49:12.446Z,1227.4
2023-02-19T17:50:56.075Z,1229.4
2023-02-19T17:52:39.782Z,1231.4
2023-02-19T17:54:23.550Z,1231.8
2023-02-19T17:56:07.196Z,1229.9
2023-02-19T17:57:50.904Z,1227.4
2023-02-19T17:59:34.654Z,1226.1
2023-02-19T18:01:18.288Z,1226.9
2023-02-19T18:03:02.045Z,1226.1
2023-02-19T18:04:45.718Z,1223
2023-02-19T18:06:29.487Z,1222.6
2023-02-19T18:08:13.177Z,1221.4
2023-02-19T18:09:56.798Z,1221.5
2023-02-19T18:11:40.510Z,1222.6
2023-02-19T18:13:24.235Z,1220.9
2023-02-19T18:15:07.906Z,1216.9
2023-02-19T18:16:51.609Z,1214.6
2023-02-19T18:18:35.299Z,1209.8
2023-02-19T18:20:19.009Z,1204.6
2023-02-19T18:22:02.776Z,1199.3
2023-02-19T18:23:46.438Z,1197.6
2023-02-19T18:25:30.134Z,1193
2023-02-19T18:27:13.854Z,1187.5
2023-02-19T18:28:57.515Z,1186.5
2023-02-19T18:30:41.209Z,1189
2023-02-19T18:32:24.912Z,1187.4
2023-02-19T18:34:08.601Z,1186.2
2023-02-19T18:35:52.341Z,1187
2023-02-19T18:37:36.053Z,1185.9
2023-02-19T18:39:19.754Z,1178.9
2023-02-19T18:41:03.415Z,1171.9
2023-02-19T18:42:47.116Z,1168
2023-02-19T18:44:30.844Z,1167.3
2023-02-19T18:46:14.511Z,1171.1
2023-02-19T18:47:58.209Z,1171.9
2023-02-19T18:49:41.956Z,1174.3
2023-02-19T18:51:25.637Z,1179.6
2023-02-19T18:53:09.419Z,1180.1
2023-02-19T18:54:53.007Z,1180.9
2023-02-19T18:56:36.719Z,1183.8
2023-02-19T18:58:20.438Z,1186.3
2023-02-19T19:01:47.831Z,1191.7
2023-02-19T19:03:31.519Z,1197.1
2023-02-19T19:05:15.246Z,1201
2023-02-19T19:06:58.923Z,1203.8
2023-02-19T19:08:42.696Z,1211.5
2023-02-19T19:10:26.326Z,1217.6
2023-02-19T19:12:10.035Z,1221.1
2023-02-19T19:13:53.737Z,1232.1
2023-02-19T19:15:37.423Z,1238.5
2023-02-19T19:17:21.190Z,1241.2
2023-02-19T19:19:04.831Z,1246
2023-02-19T19:20:48.545Z,1248.3
2023-02-19T19:22:32.306Z,1250.6
2023-02-19T19:24:15.945Z,1252.5
2023-02-19T19:25:59.647Z,1253.7
2023-02-19T19:27:43.329Z,1254.9
2023-02-19T19:29:27.042Z,1255.5
2023-02-19T19:31:10.731Z,1256.6
2023-02-19T19:32:54.591Z,1258
2023-02-19T19:34:38.174Z,1257.2
2023-02-19T19:36:21.921Z,1257.5
2023-02-19T19:38:05.557Z,1256.2
2023-02-19T19:39:49.286Z,1257.9
2023-02-19T19:41:32.995Z,1263.8
2023-02-19T19:43:16.644Z,1268.5
2023-02-19T19:45:00.763Z,1272.8
2023-02-19T19:46:44.073Z,1277.6
2023-02-19T19:48:27.739Z,1279.6
2023-02-19T19:50:11.487Z,1278.5
2023-02-19T19:51:55.216Z,1279.2
2023-02-19T19:53:38.955Z,1283.6
2023-02-19T19:55:22.628Z,1282.2
2023-02-19T19:57:06.265Z,1285.9
2023-02-19T19:58:49.965Z,1287
2023-02-19T20:00:33.654Z,1284
2023-02-19T20:02:17.359Z,1286
2023-02-19T20:04:01.114Z,1290.6
2023-02-19T20:05:44.751Z,1296.4
2023-02-19T20:07:28.469Z,1296.9
2023-02-19T20:09:12.223Z,1300
2023-02-19T20:10:55.861Z,1304
2023-02-19T20:12:39.642Z,1312.4
2023-02-19T20:14:23.265Z,1312.6
2023-02-19T20:16:06.989Z,1311.1
2023-02-19T20:17:50.663Z,1307.5
2023-02-19T20:19:34.392Z,1307.3
2023-02-19T20:21:18.131Z,1308
2023-02-19T20:23:01.767Z,1312.6
2023-02-19T20:24:45.477Z,1314.4
2023-02-19T20:26:29.185Z,1312.6
2023-02-19T20:28:12.871Z,1312.4
2023-02-19T20:29:56.577Z,1310.4
2023-02-19T20:31:40.261Z,1313.6
2023-02-19T20:33:23.991Z,1315.5
2023-02-19T20:35:07.698Z,1319.6
2023-02-19T20:36:51.374Z,1320.9
2023-02-19T20:38:35.122Z,1321.3
2023-02-19T20:40:18.875Z,1319
2023-02-19T20:42:02.494Z,1313.8
2023-02-19T20:43:46.173Z,1307.6
2023-02-19T20:45:29.878Z,1314.2
2023-02-19T20:47:13.582Z,1312.1
2023-02-19T20:48:57.343Z,1312.2
2023-02-19T20:50:40.968Z,1309
2023-02-19T20:52:24.680Z,1307.6
2023-02-19T20:54:08.380Z,1304.7
2023-02-19T20:55:52.098Z,1306.3
2023-02-19T20:57:35.794Z,1309.5
2023-02-19T20:59:19.543Z,1311.1
2023-02-19T21:01:03.262Z,1311
2023-02-19T21:02:46.897Z,1308.9
2023-02-19T21:04:30.613Z,1307.3
2023-02-19T21:06:14.289Z,1305
2023-02-19T21:07:58.009Z,1303.4
2023-02-19T21:09:41.724Z,1300
2023-02-19T21:11:25.395Z,1301.5
2023-02-19T21:13:09.113Z,1294.9
2023-02-19T21:14:52.817Z,1292
2023-02-19T21:16:36.500Z,1291.5
2023-02-19T21:18:20.204Z,1292.2
2023-02-19T21:20:03.945Z,1292.3
2023-02-19T21:21:47.610Z,1290
2023-02-19T21:23:31.311Z,1291
2023-02-19T21:25:15.008Z,1294.6
2023-02-19T21:26:58.730Z,1294.9
2023-02-19T21:28:42.439Z,1293.4
2023-02-19T21:30:26.116Z,1291.7
2023-02-19T21:32:09.818Z,1288.6
2023-02-19T21:33:53.520Z,1288.4
2023-02-19T21:35:37.240Z,1289.7
2023-02-19T21:37:20.952Z,1291.4
2023-02-19T21:39:04.622Z,1289.7
2023-02-19T21:40:48.354Z,1290
2023-02-19T21:42:32.062Z,1290.7
2023-02-19T21:44:15.741Z,1288.3
2023-02-19T21:45:59.440Z,1285.8
2023-02-19T21:47:43.175Z,1286.4
2023-02-19T21:49:26.848Z,1289.8
2023-02-19T21:51:10.541Z,1293.3
2023-02-19T21:52:54.242Z,1296
2023-02-19T21:54:37.946Z,1292.9
2023-02-19T21:56:21.661Z,1296.2
2023-02-19T21:58:05.344Z,1297
2023-02-19T21:59:49.074Z,1296.8
2023-02-19T22:01:32.749Z,1293.5
2023-02-19T22:03:16.456Z,1294
2023-02-19T22:05:00.182Z,1291.5
2023-02-19T22:06:43.881Z,1292.7
2023-02-19T22:08:27.578Z,1294.2
2023-02-19T22:10:11.271Z,1297.5
2023-02-19T22:11:54.984Z,1293.1
2023-02-19T22:13:38.664Z,1287.6
2023-02-19T22:15:22.365Z,1275.1
2023-02-19T22:17:06.081Z,1263.3
2023-02-19T22:18:49.748Z,1257.2
2023-02-19T22:20:33.482Z,1243.9